Time;durP1;ratioP1;P1;durP2;ratioP2;P2;SDS_P1;SDS_P2;PMS_P1;PMS_P2;Temp;Humidity;BMP_temperature;BMP_pressure;BME280_temperature;BME280_humidity;BME280_pressure;Samples;Min_cycle;Max_cycle;Signal;HPM_P1;HPM_P2
2021/05/04 00:01:11;;;;;;;3.15;2.20;;;12.20;99.90;;;;;;5086417;28;20020;-59
2021/05/04 00:03:37;;;;;;;3.05;2.03;;;12.20;99.90;;;;;;5090535;28;20068;-58
2021/05/04 00:06:03;;;;;;;4.05;2.58;;;12.30;99.40;;;;;;5087093;28;20054;-58
2021/05/04 00:08:28;;;;;;;4.47;2.20;;;12.30;99.90;;;;;;5088823;28;20028;-58
2021/05/04 00:10:54;;;;;;;4.20;2.60;;;12.40;99.00;;;;;;5085370;28;20051;-59
2021/05/04 00:13:20;;;;;;;2.67;1.92;;;12.50;98.90;;;;;;5087030;28;20053;-58
2021/05/04 00:15:45;;;;;;;6.85;2.83;;;12.60;98.80;;;;;;5085589;28;20474;-57
2021/05/04 00:18:11;;;;;;;9.00;2.40;;;12.50;98.90;;;;;;5090928;28;20019;-55
2021/05/04 00:20:37;;;;;;;8.45;3.30;;;12.60;99.10;;;;;;5092575;28;20035;-57
2021/05/04 00:23:02;;;;;;;6.82;2.85;;;12.70;97.90;;;;;;5090298;28;20574;-58
2021/05/04 00:25:28;;;;;;;11.30;3.10;;;12.70;98.80;;;;;;5092929;28;20028;-58
2021/05/04 00:27:53;;;;;;;4.85;3.08;;;12.80;97.60;;;;;;5094423;28;20035;-58
2021/05/04 00:30:19;;;;;;;8.45;2.78;;;12.90;97.80;;;;;;5090024;28;20028;-58
2021/05/04 00:32:45;;;;;;;3.70;2.70;;;12.90;97.10;;;;;;5085096;28;20040;-58
2021/05/04 00:35:11;;;;;;;8.40;2.60;;;12.90;97.60;;;;;;5091405;28;20111;-58
2021/05/04 00:37:37;;;;;;;4.28;2.60;;;12.90;97.50;;;;;;5092901;28;20154;-59
2021/05/04 00:40:04;;;;;;;4.72;2.72;;;12.90;97.20;;;;;;5091106;28;20521;-57
2021/05/04 00:42:29;;;;;;;5.63;2.60;;;13.00;97.10;;;;;;5088773;28;20027;-57
2021/05/04 00:44:55;;;;;;;3.53;2.40;;;13.00;97.20;;;;;;5092297;28;20774;-56
2021/05/04 00:47:20;;;;;;;14.30;2.72;;;13.00;97.30;;;;;;5092056;28;20039;-58
2021/05/04 00:49:46;;;;;;;14.13;3.10;;;13.10;97.00;;;;;;5094386;28;20034;-59
2021/05/04 00:52:12;;;;;;;7.10;2.70;;;13.10;96.90;;;;;;5092567;28;20024;-58
2021/05/04 00:54:39;;;;;;;8.70;2.53;;;13.10;96.70;;;;;;5091777;28;20051;-56
2021/05/04 00:57:07;;;;;;;7.25;2.30;;;13.20;96.80;;;;;;5092909;28;20032;-56
2021/05/04 00:59:34;;;;;;;6.50;2.40;;;13.10;97.30;;;;;;5093534;28;20066;-56
2021/05/04 01:02:00;;;;;;;5.47;1.95;;;13.10;97.30;;;;;;5093596;28;20024;-59
2021/05/04 01:04:26;;;;;;;8.55;2.10;;;13.10;96.90;;;;;;5097063;28;20103;-56
2021/05/04 01:06:52;;;;;;;9.73;2.10;;;13.00;97.20;;;;;;5093249;28;20425;-56
2021/05/04 01:09:18;;;;;;;6.68;2.30;;;13.00;98.00;;;;;;5092628;28;20030;-59
2021/05/04 01:11:45;;;;;;;3.90;2.30;;;13.00;97.40;;;;;;5092230;28;20051;-58
2021/05/04 01:14:11;;;;;;;5.50;2.80;;;13.00;97.30;;;;;;5091907;28;20072;-56
2021/05/04 01:16:42;;;;;;;6.88;2.42;;;13.00;97.20;;;;;;5087073;28;20032;-59
2021/05/04 01:19:09;;;;;;;12.02;2.83;;;13.00;97.40;;;;;;5094576;28;20027;-60
2021/05/04 01:21:34;;;;;;;4.35;2.75;;;13.00;97.90;;;;;;5095148;28;20016;-59
2021/05/04 01:24:00;;;;;;;8.52;3.10;;;13.00;97.30;;;;;;5092145;28;20043;-59
2021/05/04 01:26:25;;;;;;;5.20;2.70;;;13.00;97.70;;;;;;5088532;28;20490;-58
2021/05/04 01:28:51;;;;;;;5.10;3.53;;;13.00;97.40;;;;;;5092081;28;20520;-59
2021/05/04 01:31:16;;;;;;;4.05;2.45;;;13.00;97.70;;;;;;5091290;28;20043;-59
2021/05/04 01:33:42;;;;;;;6.95;2.60;;;13.00;97.50;;;;;;5090257;28;20024;-59
2021/05/04 01:36:07;;;;;;;3.67;1.92;;;13.00;97.60;;;;;;5089323;28;20496;-59
2021/05/04 01:38:33;;;;;;;4.65;1.90;;;13.00;97.70;;;;;;5091986;28;20026;-57
2021/05/04 01:40:59;;;;;;;4.65;2.03;;;12.90;97.60;;;;;;5092153;28;20473;-57
2021/05/04 01:43:24;;;;;;;3.83;2.00;;;12.90;97.80;;;;;;5091046;28;20024;-58
2021/05/04 01:45:50;;;;;;;4.57;2.20;;;12.90;97.40;;;;;;5092015;28;20059;-58
2021/05/04 01:48:15;;;;;;;6.72;1.98;;;12.90;98.20;;;;;;5092785;28;20043;-56
2021/05/04 01:50:41;;;;;;;6.20;1.92;;;12.90;97.30;;;;;;5091351;28;20032;-58
2021/05/04 01:53:06;;;;;;;4.57;1.42;;;12.90;97.60;;;;;;5085915;28;20045;-57
2021/05/04 01:55:32;;;;;;;8.02;2.72;;;13.00;97.50;;;;;;5091667;28;20115;-58
2021/05/04 01:57:57;;;;;;;5.63;1.42;;;13.00;97.20;;;;;;5091952;28;20346;-58
2021/05/04 02:00:23;;;;;;;3.75;1.50;;;13.10;97.20;;;;;;5091598;28;20028;-57
2021/05/04 02:12:54;;;;;;;1.48;1.25;;;13.30;96.50;;;;;;5089517;28;20560;-58
2021/05/04 02:15:20;;;;;;;6.47;1.70;;;13.30;96.70;;;;;;5088509;28;20115;-57
2021/05/04 02:17:45;;;;;;;5.18;2.00;;;13.30;96.40;;;;;;5091831;28;20461;-58
2021/05/04 02:20:12;;;;;;;11.05;1.58;;;13.30;96.30;;;;;;5092907;28;20036;-54
2021/05/04 02:22:37;;;;;;;11.85;1.60;;;13.30;95.40;;;;;;5088716;28;20032;-57
2021/05/04 02:25:04;;;;;;;13.25;1.48;;;13.40;94.90;;;;;;5088378;28;20031;-56
2021/05/04 02:27:29;;;;;;;6.50;1.58;;;13.40;94.80;;;;;;5088286;28;20095;-58
2021/05/04 02:29:55;;;;;;;13.32;1.65;;;13.50;94.80;;;;;;5091147;28;20101;-58
2021/05/04 02:32:21;;;;;;;18.42;1.90;;;13.50;94.00;;;;;;5084860;28;20031;-57
2021/05/04 02:34:46;;;;;;;4.55;1.48;;;13.50;93.80;;;;;;5086857;28;20047;-57
2021/05/04 02:37:12;;;;;;;5.20;1.17;;;13.40;95.80;;;;;;5094119;28;20026;-58
2021/05/04 02:39:38;;;;;;;14.20;1.52;;;13.20;95.80;;;;;;5091241;28;20048;-57
2021/05/04 02:42:04;;;;;;;6.22;1.55;;;13.10;98.70;;;;;;5088078;28;20482;-58
2021/05/04 02:44:29;;;;;;;8.85;1.52;;;12.80;99.40;;;;;;5091256;28;20032;-57
2021/05/04 02:46:55;;;;;;;9.48;1.42;;;12.60;99.90;;;;;;5090992;28;20031;-57
2021/05/04 02:49:20;;;;;;;10.23;1.45;;;12.40;99.90;;;;;;5091250;28;20036;-58
2021/05/04 02:51:46;;;;;;;8.85;2.17;;;12.20;99.90;;;;;;5092294;28;20044;-57
2021/05/04 02:54:12;;;;;;;8.55;1.55;;;11.90;99.90;;;;;;5090768;28;20165;-57
2021/05/04 02:56:37;;;;;;;6.43;1.42;;;11.60;99.90;;;;;;5088006;28;20366;-55
2021/05/04 02:59:03;;;;;;;17.77;1.58;;;11.40;99.90;;;;;;5090832;28;20020;-57
2021/05/04 03:01:29;;;;;;;3.92;1.48;;;11.20;99.90;;;;;;5088522;28;20558;-57
2021/05/04 03:03:55;;;;;;;9.90;3.10;;;11.00;99.90;;;;;;5090742;28;20105;-57
2021/05/04 03:06:20;;;;;;;3.55;1.70;;;10.90;99.90;;;;;;5091757;28;20042;-59
2021/05/04 03:08:46;;;;;;;2.85;1.33;;;10.80;99.90;;;;;;5091126;28;20028;-58
2021/05/04 03:11:12;;;;;;;4.65;1.45;;;10.60;99.90;;;;;;5091396;28;20561;-58
2021/05/04 03:13:37;;;;;;;3.30;1.60;;;10.50;99.90;;;;;;5090626;28;20481;-58
2021/05/04 03:16:03;;;;;;;4.32;1.75;;;10.40;99.90;;;;;;5090689;28;20024;-58
2021/05/04 03:18:29;;;;;;;6.35;1.63;;;10.30;99.90;;;;;;5091699;28;20339;-59
2021/05/04 03:20:55;;;;;;;8.48;1.98;;;10.20;99.90;;;;;;5088295;28;20118;-57
2021/05/04 03:23:21;;;;;;;3.35;1.45;;;10.10;99.90;;;;;;5083437;28;20028;-57
2021/05/04 03:25:47;;;;;;;3.30;1.50;;;10.00;99.90;;;;;;5095609;28;20107;-57
2021/05/04 03:28:13;;;;;;;7.05;1.60;;;10.00;99.90;;;;;;5071827;28;20116;-55
2021/05/04 03:30:39;;;;;;;3.60;1.35;;;9.90;99.90;;;;;;5089934;28;20494;-56
2021/05/04 03:33:05;;;;;;;7.53;1.58;;;9.80;99.90;;;;;;5088098;28;20046;-57
2021/05/04 03:35:32;;;;;;;2.90;1.77;;;9.80;99.90;;;;;;5086027;28;20036;-57
2021/05/04 03:37:57;;;;;;;9.90;3.78;;;9.70;99.90;;;;;;5091336;28;20111;-57
2021/05/04 03:40:23;;;;;;;5.07;1.50;;;9.60;99.90;;;;;;5089958;28;20444;-57
2021/05/04 03:42:49;;;;;;;6.40;1.67;;;9.60;99.90;;;;;;5082334;28;20357;-57
2021/05/04 03:45:14;;;;;;;5.65;1.35;;;9.60;99.90;;;;;;5090522;28;20028;-57
2021/05/04 03:47:42;;;;;;;1.88;1.40;;;9.70;99.90;;;;;;5089360;28;20024;-56
2021/05/04 03:50:13;;;;;;;2.35;1.58;;;9.70;99.90;;;;;;5090171;28;20020;-58
2021/05/04 03:52:39;;;;;;;5.47;1.10;;;9.60;99.90;;;;;;5083883;28;20032;-58
2021/05/04 03:55:06;;;;;;;4.13;1.63;;;9.70;99.90;;;;;;5087484;28;20486;-59
2021/05/04 03:57:31;;;;;;;4.25;1.40;;;9.70;99.90;;;;;;5093126;28;20065;-58
2021/05/04 03:59:58;;;;;;;5.75;1.50;;;9.70;99.90;;;;;;5089679;28;20035;-60
2021/05/04 04:02:24;;;;;;;3.35;1.90;;;9.70;99.90;;;;;;5088815;28;20059;-58
2021/05/04 04:04:49;;;;;;;4.63;1.55;;;9.80;99.90;;;;;;5080734;28;20059;-59
2021/05/04 04:07:15;;;;;;;3.35;1.30;;;9.70;99.90;;;;;;5089056;28;20028;-58
2021/05/04 04:09:40;;;;;;;4.20;1.75;;;9.80;99.90;;;;;;5107905;22;20027;-55
2021/05/04 04:12:06;;;;;;;7.88;2.00;;;9.80;99.90;;;;;;5126612;27;20059;-56
2021/05/04 04:14:32;;;;;;;2.65;1.52;;;9.80;99.90;;;;;;5120601;28;20941;-54
2021/05/04 04:16:57;;;;;;;2.67;1.40;;;9.80;99.90;;;;;;5123052;27;20397;-56
2021/05/04 04:19:23;;;;;;;8.10;1.38;;;9.80;99.90;;;;;;5123478;28;20023;-55
2021/05/04 04:21:49;;;;;;;7.40;1.23;;;9.80;99.90;;;;;;5117676;28;20047;-57
2021/05/04 04:24:18;;;;;;;3.45;1.63;;;9.70;99.90;;;;;;5109686;28;20393;-57
2021/05/04 04:26:44;;;;;;;3.17;1.70;;;9.70;99.90;;;;;;5113853;28;20028;-57
2021/05/04 04:29:09;;;;;;;3.35;1.25;;;9.80;99.90;;;;;;5111699;27;20504;-58
2021/05/04 04:31:35;;;;;;;6.25;1.50;;;9.80;99.90;;;;;;5109889;28;20077;-53
2021/05/04 04:34:01;;;;;;;3.75;1.48;;;9.80;99.90;;;;;;5112115;28;20063;-58
2021/05/04 04:36:27;;;;;;;5.55;1.70;;;9.80;99.90;;;;;;5116126;28;20020;-57
2021/05/04 04:38:52;;;;;;;5.10;1.48;;;9.70;99.90;;;;;;5116115;28;20035;-58
2021/05/04 04:41:18;;;;;;;2.30;1.02;;;9.70;99.90;;;;;;5114211;28;20412;-58
2021/05/04 04:43:44;;;;;;;3.42;1.23;;;9.70;99.90;;;;;;5108028;28;20055;-54
2021/05/04 04:46:10;;;;;;;7.95;1.73;;;9.70;99.90;;;;;;5106951;28;20481;-55
2021/05/04 04:48:35;;;;;;;4.47;1.65;;;9.70;99.90;;;;;;5111362;28;20036;-57
2021/05/04 04:51:01;;;;;;;3.35;1.30;;;9.70;99.90;;;;;;5100344;28;20039;-58
2021/05/04 04:53:27;;;;;;;4.10;1.60;;;9.70;99.90;;;;;;5110900;28;20442;-52
2021/05/04 04:55:52;;;;;;;2.22;1.27;;;9.70;99.90;;;;;;5113857;28;20035;-55
2021/05/04 04:58:18;;;;;;;7.68;1.20;;;9.70;99.90;;;;;;5113837;28;20020;-58
2021/05/04 05:00:44;;;;;;;6.07;1.55;;;9.70;99.90;;;;;;5106410;28;20606;-56
2021/05/04 05:03:09;;;;;;;10.05;1.30;;;9.70;99.90;;;;;;5110654;28;20027;-58
2021/05/04 05:05:35;;;;;;;2.30;1.00;;;9.70;99.90;;;;;;5114246;27;20114;-56
2021/05/04 05:08:01;;;;;;;1.75;1.17;;;9.70;99.90;;;;;;5116094;27;20100;-54
2021/05/04 05:10:26;;;;;;;7.20;1.30;;;9.70;99.90;;;;;;5105574;27;20035;-55
2021/05/04 05:12:52;;;;;;;3.03;1.20;;;9.70;99.90;;;;;;5107142;27;20443;-52
2021/05/04 05:15:18;;;;;;;1.67;1.23;;;9.70;99.90;;;;;;5108749;27;20036;-54
2021/05/04 05:17:43;;;;;;;5.18;1.40;;;9.70;99.90;;;;;;5116295;27;20188;-57
2021/05/04 05:20:09;;;;;;;5.30;1.25;;;9.70;99.90;;;;;;5110459;27;20023;-56
2021/05/04 05:22:35;;;;;;;4.30;1.50;;;9.70;99.90;;;;;;5111922;27;20023;-55
2021/05/04 05:25:01;;;;;;;1.08;0.95;;;9.70;99.90;;;;;;5116939;27;20023;-58
2021/05/04 05:27:31;;;;;;;3.08;1.02;;;9.70;99.90;;;;;;5112703;27;20030;-58
2021/05/04 05:29:56;;;;;;;3.13;1.27;;;9.70;99.90;;;;;;5103022;27;20058;-60
2021/05/04 05:32:22;;;;;;;3.65;1.35;;;9.70;99.90;;;;;;5109716;27;20055;-56
2021/05/04 05:34:48;;;;;;;1.60;1.17;;;9.80;99.90;;;;;;5104557;27;20027;-59
2021/05/04 05:37:13;;;;;;;4.53;1.13;;;9.80;99.90;;;;;;5116687;27;20481;-59
2021/05/04 05:39:42;;;;;;;1.30;1.20;;;9.70;99.90;;;;;;5108764;27;20040;-58
2021/05/04 05:42:11;;;;;;;5.45;1.38;;;9.80;99.90;;;;;;5109543;27;20020;-56
2021/05/04 05:44:37;;;;;;;1.75;1.02;;;9.80;99.90;;;;;;5104826;27;20149;-57
2021/05/04 05:47:03;;;;;;;4.43;1.15;;;9.80;99.90;;;;;;5111288;27;20124;-57
2021/05/04 05:49:29;;;;;;;7.13;1.33;;;9.80;99.90;;;;;;5105439;27;20058;-56
2021/05/04 05:51:54;;;;;;;4.72;1.38;;;9.80;99.90;;;;;;5106322;27;20137;-58
2021/05/04 05:54:20;;;;;;;2.80;1.08;;;9.90;99.90;;;;;;5103468;28;20434;-58
2021/05/04 05:56:45;;;;;;;2.03;1.00;;;9.90;99.90;;;;;;5111085;27;20019;-57
2021/05/04 05:59:11;;;;;;;2.03;1.30;;;9.90;99.90;;;;;;5109853;27;20095;-58
2021/05/04 06:01:37;;;;;;;3.25;0.90;;;9.90;99.90;;;;;;5107151;27;20020;-53
2021/05/04 06:04:02;;;;;;;4.18;1.10;;;9.90;99.90;;;;;;5098974;27;20028;-56
2021/05/04 06:06:28;;;;;;;2.08;1.20;;;9.90;99.90;;;;;;5113282;27;20477;-55
2021/05/04 06:08:53;;;;;;;4.65;1.10;;;9.90;99.90;;;;;;5117760;27;20019;-56
2021/05/04 06:11:19;;;;;;;1.50;0.93;;;10.00;99.90;;;;;;5106635;27;20111;-55
2021/05/04 06:13:44;;;;;;;1.70;1.15;;;10.00;99.90;;;;;;5108739;27;20100;-56
2021/05/04 06:16:10;;;;;;;1.80;1.20;;;10.00;99.90;;;;;;5103360;27;20111;-56
2021/05/04 06:18:36;;;;;;;2.85;1.10;;;10.00;99.90;;;;;;5101925;27;20037;-57
2021/05/04 06:21:01;;;;;;;2.58;1.15;;;10.00;99.90;;;;;;5099722;27;20032;-53
2021/05/04 06:23:27;;;;;;;1.90;1.20;;;10.10;99.90;;;;;;5106837;28;20020;-59
2021/05/04 06:25:53;;;;;;;5.78;1.60;;;10.10;99.90;;;;;;5108822;27;20070;-55
2021/05/04 06:28:18;;;;;;;1.92;1.13;;;10.10;99.90;;;;;;5105226;27;21628;-53
2021/05/04 06:30:44;;;;;;;7.78;1.25;;;10.00;99.90;;;;;;5102307;27;20107;-53
2021/05/04 06:33:11;;;;;;;2.17;1.13;;;10.10;99.90;;;;;;5108077;27;20102;-58
2021/05/04 06:35:43;;;;;;;1.10;1.00;;;10.10;99.90;;;;;;5104080;28;20024;-59
2021/05/04 06:38:13;;;;;;;1.27;1.10;;;10.10;99.90;;;;;;5107143;27;20036;-52
2021/05/04 06:40:39;;;;;;;2.85;1.13;;;10.10;99.90;;;;;;5101512;27;20114;-56
2021/05/04 06:43:05;;;;;;;3.22;1.30;;;10.20;99.90;;;;;;5108238;27;20077;-59
2021/05/04 06:45:31;;;;;;;0.98;0.80;;;10.20;99.90;;;;;;5102331;27;20447;-58
2021/05/04 06:47:56;;;;;;;4.03;0.93;;;10.20;99.90;;;;;;5101948;28;20031;-58
2021/05/04 06:50:22;;;;;;;5.57;0.80;;;10.20;99.90;;;;;;5110851;27;20032;-58
2021/05/04 06:52:48;;;;;;;1.88;1.30;;;10.20;99.90;;;;;;5105731;27;20047;-58
2021/05/04 06:55:13;;;;;;;1.45;0.95;;;10.20;99.90;;;;;;5106949;27;20035;-59
2021/05/04 06:57:40;;;;;;;8.90;1.13;;;10.20;99.90;;;;;;5111889;27;20437;-55
2021/05/04 07:00:07;;;;;;;1.38;0.85;;;10.20;99.90;;;;;;5104828;27;20047;-54
2021/05/04 07:02:33;;;;;;;6.75;1.40;;;10.20;99.90;;;;;;5108749;27;20054;-59
2021/05/04 07:04:59;;;;;;;4.03;1.17;;;10.40;99.90;;;;;;5107998;27;20426;-58
2021/05/04 07:07:24;;;;;;;2.92;1.20;;;10.60;99.90;;;;;;5113347;27;20051;-58
2021/05/04 07:09:50;;;;;;;2.35;1.02;;;10.70;99.90;;;;;;5101912;28;20026;-56
2021/05/04 07:12:15;;;;;;;3.08;1.10;;;10.80;99.90;;;;;;5109828;27;20096;-56
2021/05/04 07:14:41;;;;;;;1.55;0.88;;;10.80;99.90;;;;;;5108744;27;20019;-57
2021/05/04 07:17:06;;;;;;;1.27;1.08;;;10.70;99.90;;;;;;5101647;27;20032;-59
2021/05/04 07:19:32;;;;;;;2.25;0.80;;;10.60;99.90;;;;;;5106060;27;20020;-58
2021/05/04 07:21:58;;;;;;;2.35;0.80;;;10.60;99.90;;;;;;5106016;27;20425;-58
2021/05/04 07:24:24;;;;;;;2.55;1.05;;;10.50;99.90;;;;;;5099972;27;20092;-58
2021/05/04 07:26:50;;;;;;;5.15;1.45;;;10.50;99.90;;;;;;5106185;28;20485;-57
2021/05/04 07:29:16;;;;;;;1.10;1.00;;;10.50;99.90;;;;;;5099676;28;20039;-58
2021/05/04 07:31:43;;;;;;;3.47;1.08;;;10.50;99.90;;;;;;5107013;27;20028;-58
2021/05/04 07:34:09;;;;;;;1.52;0.90;;;10.50;99.90;;;;;;5106006;27;20639;-60
2021/05/04 07:36:35;;;;;;;1.17;0.90;;;10.50;99.90;;;;;;5106081;27;20481;-58
2021/05/04 07:39:00;;;;;;;1.25;0.90;;;10.50;99.90;;;;;;5108344;28;20022;-57
2021/05/04 07:41:26;;;;;;;1.98;1.00;;;10.50;99.90;;;;;;5102535;27;20036;-59
2021/05/04 07:43:52;;;;;;;2.30;0.90;;;10.60;99.90;;;;;;5104988;27;20026;-57
2021/05/04 07:46:18;;;;;;;1.77;0.90;;;10.60;99.90;;;;;;5102354;28;20410;-54
2021/05/04 07:48:44;;;;;;;2.78;0.80;;;10.60;99.90;;;;;;5108217;28;20542;-57
2021/05/04 07:51:09;;;;;;;1.77;1.00;;;10.70;99.90;;;;;;5105955;27;20020;-59
2021/05/04 07:53:35;;;;;;;2.40;0.90;;;10.70;99.90;;;;;;5102558;28;20138;-59
2021/05/04 07:56:00;;;;;;;1.13;0.80;;;10.70;99.90;;;;;;5101634;28;20062;-57
2021/05/04 07:58:26;;;;;;;1.55;0.82;;;10.80;99.90;;;;;;5101458;28;20024;-59
2021/05/04 08:00:52;;;;;;;5.32;1.00;;;10.90;99.90;;;;;;5098828;28;20028;-57
2021/05/04 08:03:18;;;;;;;2.08;0.77;;;10.90;99.90;;;;;;5100501;28;20031;-59
2021/05/04 08:05:44;;;;;;;1.50;1.20;;;11.00;99.90;;;;;;5102711;28;20015;-60
2021/05/04 08:08:12;;;;;;;2.30;0.98;;;11.10;99.90;;;;;;5099909;28;20506;-60
2021/05/04 08:10:38;;;;;;;2.85;0.90;;;11.20;99.90;;;;;;5103939;28;20032;-58
2021/05/04 08:13:04;;;;;;;3.53;1.20;;;11.10;99.90;;;;;;5112567;28;20152;-59
2021/05/04 08:15:30;;;;;;;1.13;0.60;;;11.20;99.90;;;;;;5100686;28;20032;-58
2021/05/04 08:17:58;;;;;;;2.05;1.10;;;11.20;99.90;;;;;;5101432;28;20062;-58
2021/05/04 08:20:27;;;;;;;9.50;1.40;;;11.20;99.90;;;;;;5105278;28;20024;-58
2021/05/04 08:22:53;;;;;;;2.22;0.75;;;11.20;99.90;;;;;;5102596;28;20012;-60
2021/05/04 08:25:20;;;;;;;4.95;1.05;;;11.10;99.90;;;;;;5103472;28;20380;-59
2021/05/04 08:27:45;;;;;;;4.07;1.27;;;11.10;99.90;;;;;;5109763;28;20546;-60
2021/05/04 08:30:11;;;;;;;1.45;1.02;;;11.00;99.90;;;;;;5103914;28;20059;-57
2021/05/04 08:32:37;;;;;;;2.05;1.20;;;11.00;99.90;;;;;;5105848;28;20569;-60
2021/05/04 08:35:03;;;;;;;4.30;1.40;;;11.00;99.90;;;;;;5096824;28;20293;-60
2021/05/04 08:37:28;;;;;;;4.45;1.10;;;11.00;99.90;;;;;;5104790;28;20058;-60
2021/05/04 08:39:54;;;;;;;4.10;1.40;;;11.00;99.90;;;;;;5102094;27;20540;-59
2021/05/04 08:42:20;;;;;;;2.03;1.13;;;11.00;99.90;;;;;;5115863;27;20027;-58
2021/05/04 08:44:52;;;;;;;3.03;1.55;;;11.00;99.90;;;;;;5103460;27;20401;-60
2021/05/04 08:47:22;;;;;;;4.13;1.20;;;11.00;99.90;;;;;;5106303;27;20032;-59
2021/05/04 08:49:49;;;;;;;2.13;1.08;;;11.10;99.90;;;;;;5100508;27;20441;-57
2021/05/04 08:52:16;;;;;;;2.30;1.05;;;11.10;99.90;;;;;;5104503;28;20059;-60
2021/05/04 08:54:42;;;;;;;2.65;1.70;;;11.10;99.90;;;;;;5107650;27;20373;-59
2021/05/04 08:57:08;;;;;;;3.58;1.50;;;11.10;99.90;;;;;;5116512;27;20068;-58
2021/05/04 08:59:33;;;;;;;1.58;1.10;;;11.10;99.90;;;;;;5106964;27;20077;-58
2021/05/04 09:01:59;;;;;;;3.58;1.13;;;11.10;99.90;;;;;;5111393;27;20150;-60
2021/05/04 09:04:33;;;;;;;3.65;1.30;;;11.30;99.90;;;;;;5105790;27;20038;-63
2021/05/04 09:07:27;;;;;;;3.73;1.67;;;11.40;99.90;;;;;;5108609;27;20031;-63
2021/05/04 09:10:05;;;;;;;3.40;1.27;;;11.50;99.90;;;;;;5099729;28;20027;-60
2021/05/04 09:12:44;;;;;;;2.95;1.52;;;11.50;99.90;;;;;;5111258;27;20031;-62
2021/05/04 09:15:41;;;;;;;4.28;2.05;;;11.60;99.90;;;;;;5103881;27;20469;-58
2021/05/04 09:21:14;;;;;;;52.78;3.20;;;12.20;99.90;;;;;;5106964;28;20016;-60
2021/05/04 09:23:41;;;;;;;3.55;1.17;;;12.20;99.90;;;;;;5102472;27;20085;-60
2021/05/04 09:26:40;;;;;;;2.70;1.20;;;12.20;99.90;;;;;;5105842;27;20142;-60
2021/05/04 09:29:10;;;;;;;87.00;4.63;;;12.20;99.90;;;;;;5103785;27;20309;-60
2021/05/04 09:31:38;;;;;;;19.77;1.48;;;12.20;99.90;;;;;;5110432;27;20220;-58
2021/05/04 09:34:12;;;;;;;5.75;1.27;;;12.10;99.90;;;;;;5102761;27;20020;-59
2021/05/04 09:36:43;;;;;;;3.23;1.07;;;12.00;99.90;;;;;;5107047;27;20016;-57
2021/05/04 09:39:12;;;;;;;53.13;2.60;;;11.90;99.90;;;;;;5103599;27;20035;-60
2021/05/04 09:41:38;;;;;;;4.90;1.27;;;12.00;99.90;;;;;;5107039;27;20477;-58
2021/05/04 09:44:04;;;;;;;4.35;1.30;;;12.00;99.90;;;;;;5112944;27;20047;-56
2021/05/04 09:46:49;;;;;;;3.53;1.00;;;12.10;99.90;;;;;;5110705;27;20024;-58
2021/05/04 09:49:44;;;;;;;2.97;1.08;;;12.20;99.90;;;;;;5111305;27;20110;-55
2021/05/04 09:55:10;;;;;;;9.18;2.05;;;12.30;99.90;;;;;;5107344;27;20122;-59
2021/05/04 09:57:39;;;;;;;3.65;1.40;;;12.30;99.90;;;;;;5106169;28;20040;-59
2021/05/04 10:00:17;;;;;;;3.92;1.40;;;12.40;99.90;;;;;;5107893;27;20022;-59
2021/05/04 10:02:45;;;;;;;1.20;1.02;;;12.50;99.90;;;;;;5106219;27;20454;-58
2021/05/04 10:05:14;;;;;;;4.85;1.27;;;12.60;99.90;;;;;;5105650;27;20031;-57
2021/05/04 10:07:40;;;;;;;5.85;0.93;;;12.70;99.90;;;;;;5108517;28;20063;-58
2021/05/04 10:10:09;;;;;;;546.75;58.35;;;12.80;99.90;;;;;;5106933;27;20023;-58
2021/05/04 10:12:40;;;;;;;443.13;40.90;;;13.00;99.90;;;;;;5086819;22;20160;-58
2021/05/04 10:15:07;;;;;;;87.55;6.43;;;13.00;99.90;;;;;;5065220;28;20090;-58
2021/05/04 10:17:35;;;;;;;159.50;13.88;;;13.10;99.90;;;;;;5070574;28;20031;-58
2021/05/04 10:20:07;;;;;;;25.60;2.58;;;13.20;99.90;;;;;;5068710;28;20025;-58
2021/05/04 10:22:34;;;;;;;4.47;0.95;;;13.30;99.90;;;;;;5065130;28;20119;-59
2021/05/04 10:25:00;;;;;;;1.98;1.10;;;13.40;99.90;;;;;;5058991;28;20041;-57
2021/05/04 10:27:26;;;;;;;6.13;0.80;;;13.50;99.90;;;;;;5064041;28;20048;-58
2021/05/04 10:29:53;;;;;;;8.18;1.20;;;13.70;99.90;;;;;;5062820;28;20093;-60
2021/05/04 10:32:51;;;;;;;3.25;0.95;;;13.70;99.90;;;;;;5061508;28;20029;-57
2021/05/04 10:35:32;;;;;;;3.60;1.75;;;13.70;99.90;;;;;;5061917;28;20043;-56
2021/05/04 10:38:00;;;;;;;6.03;1.50;;;13.80;99.90;;;;;;5059398;28;20444;-57
2021/05/04 10:40:31;;;;;;;11.57;1.08;;;13.90;99.90;;;;;;5069681;28;20028;-59
2021/05/04 10:43:23;;;;;;;6.25;0.90;;;13.80;99.90;;;;;;5063944;28;20028;-59
2021/05/04 10:45:52;;;;;;;5.47;1.05;;;13.90;99.90;;;;;;5037944;28;20165;-57
2021/05/04 10:48:38;;;;;;;7.88;1.80;;;14.30;99.90;;;;;;5071026;28;20051;-56
2021/05/04 10:51:08;;;;;;;7.50;1.25;;;14.50;99.90;;;;;;5065082;28;20506;-56
2021/05/04 10:53:52;;;;;;;13.48;1.30;;;14.50;99.90;;;;;;5069317;28;20040;-57
2021/05/04 10:56:34;;;;;;;11.10;1.40;;;14.80;99.90;;;;;;5060687;28;20051;-61
2021/05/04 10:59:00;;;;;;;5.93;1.20;;;14.60;99.90;;;;;;5069594;28;20524;-54
2021/05/04 11:01:26;;;;;;;15.07;1.50;;;14.40;99.90;;;;;;5064936;28;20028;-55
2021/05/04 11:03:53;;;;;;;6.00;1.48;;;14.00;99.90;;;;;;5068227;28;20103;-57
2021/05/04 11:06:24;;;;;;;8.38;1.10;;;14.00;99.90;;;;;;5066677;28;20027;-58
2021/05/04 11:08:50;;;;;;;10.45;1.35;;;14.10;99.90;;;;;;5070774;28;20029;-60
2021/05/04 11:11:28;;;;;;;11.20;1.42;;;14.20;99.90;;;;;;5068693;28;20536;-59
2021/05/04 11:14:01;;;;;;;652.45;63.42;;;14.40;99.90;;;;;;5087266;28;20536;-56
2021/05/04 11:16:41;;;;;;;9.95;2.05;;;14.80;99.90;;;;;;5084725;28;20058;-55
2021/05/04 11:19:36;;;;;;;50.20;2.83;;;15.30;99.90;;;;;;5080544;28;20541;-56
2021/05/04 11:22:05;;;;;;;14.88;2.08;;;15.70;99.90;;;;;;5082445;28;20510;-53
2021/05/04 11:24:34;;;;;;;18.25;1.50;;;16.10;99.90;;;;;;5082115;28;20568;-54
2021/05/04 11:27:01;;;;;;;20.20;2.05;;;16.40;99.90;;;;;;5082070;28;20027;-51
2021/05/04 11:29:32;;;;;;;15.48;2.13;;;16.60;99.90;;;;;;5080818;28;20016;-53
2021/05/04 11:32:15;;;;;;;11.82;1.83;;;16.50;99.90;;;;;;5083631;28;20033;-54
2021/05/04 11:34:46;;;;;;;13.80;2.13;;;15.90;99.90;;;;;;5083045;28;20188;-53
2021/05/04 11:37:20;;;;;;;16.88;1.73;;;16.20;99.90;;;;;;5077897;28;20394;-54
2021/05/04 11:39:55;;;;;;;16.13;1.60;;;16.50;99.90;;;;;;5086310;28;20024;-55
2021/05/04 11:42:37;;;;;;;17.25;3.00;;;16.50;99.90;;;;;;5084160;28;20017;-54
2021/05/04 11:45:25;;;;;;;9.90;1.75;;;16.40;99.90;;;;;;5087216;28;20039;-57
2021/05/04 11:47:55;;;;;;;10.43;2.17;;;16.40;99.90;;;;;;5082666;28;20126;-56
2021/05/04 11:50:21;;;;;;;12.30;2.30;;;16.60;99.90;;;;;;5076314;28;20025;-55
2021/05/04 11:52:52;;;;;;;15.10;1.75;;;16.20;99.90;;;;;;5082627;28;20035;-56
2021/05/04 11:55:23;;;;;;;19.73;2.15;;;15.90;99.90;;;;;;5083804;28;20028;-57
2021/05/04 11:58:10;;;;;;;12.15;1.70;;;16.20;99.90;;;;;;5080070;28;20137;-60
2021/05/04 12:00:37;;;;;;;11.75;1.63;;;16.00;99.90;;;;;;5048120;28;20584;-57
2021/05/04 12:03:15;;;;;;;85.55;5.60;;;16.00;99.90;;;;;;5064404;28;20047;-56
2021/05/04 12:05:45;;;;;;;14.35;2.33;;;16.00;99.90;;;;;;5080259;28;20036;-56
2021/05/04 12:08:12;;;;;;;22.42;1.92;;;16.10;99.90;;;;;;5081400;28;20036;-57
2021/05/04 12:10:46;;;;;;;11.18;1.50;;;16.00;99.90;;;;;;5080677;28;20088;-58
2021/05/04 12:13:19;;;;;;;21.67;1.90;;;15.90;99.90;;;;;;5080840;28;20036;-55
2021/05/04 12:15:45;;;;;;;18.92;1.90;;;16.00;99.90;;;;;;5084860;28;20455;-57
2021/05/04 12:18:13;;;;;;;111.47;8.00;;;15.90;99.90;;;;;;5085232;28;20028;-53
2021/05/04 12:20:50;;;;;;;15.68;1.70;;;15.90;99.90;;;;;;5089714;28;20732;-56
2021/05/04 12:23:30;;;;;;;20.25;2.10;;;15.80;99.90;;;;;;5082299;28;20033;-59
2021/05/04 12:26:00;;;;;;;16.33;2.00;;;15.90;99.90;;;;;;5079511;28;20508;-59
2021/05/04 12:28:29;;;;;;;11.45;2.38;;;15.90;99.90;;;;;;5089208;28;20040;-60
2021/05/04 12:31:08;;;;;;;17.25;2.13;;;15.80;99.90;;;;;;5082177;28;20036;-59
2021/05/04 12:33:34;;;;;;;10.27;1.50;;;15.70;99.90;;;;;;5084185;28;20032;-54
2021/05/04 12:36:06;;;;;;;10.10;1.40;;;15.50;99.90;;;;;;5082461;28;20945;-57
2021/05/04 12:38:55;;;;;;;11.45;1.83;;;15.60;99.90;;;;;;5083073;28;20039;-56
2021/05/04 12:41:22;;;;;;;38.30;2.88;;;16.00;99.90;;;;;;5081054;28;21790;-57
2021/05/04 12:44:03;;;;;;;10.88;2.08;;;16.40;99.90;;;;;;5083385;28;20032;-57
2021/05/04 12:46:31;;;;;;;17.33;2.70;;;16.70;99.90;;;;;;5083740;28;20166;-57
2021/05/04 12:48:59;;;;;;;11.27;1.65;;;16.80;99.90;;;;;;5081786;28;20072;-59
2021/05/04 12:51:33;;;;;;;9.73;1.90;;;17.10;99.90;;;;;;5084011;28;20055;-61
2021/05/04 12:54:17;;;;;;;19.05;1.83;;;17.50;99.90;;;;;;5083394;28;20538;-59
2021/05/04 12:56:44;;;;;;;16.73;1.52;;;17.10;98.20;;;;;;5083547;28;20058;-54
2021/05/04 12:59:11;;;;;;;7.00;1.25;;;16.70;99.80;;;;;;5082255;28;20473;-58
2021/05/04 13:01:54;;;;;;;9.05;1.45;;;16.10;99.80;;;;;;5084116;28;20085;-58
2021/05/04 13:04:59;;;;;;;10.52;1.50;;;16.10;99.90;;;;;;5088841;28;20016;-58
2021/05/04 13:10:12;;;;;;;8.50;1.73;;;16.80;99.30;;;;;;5083475;28;20321;-63